createdAt,value
2023-04-09T04:08:03.366Z,4.00
2023-04-09T04:10:31.913Z,4.20
2023-04-09T04:13:00.540Z,4.20
2023-04-09T04:15:29.083Z,4.50
2023-04-09T04:17:57.752Z,4.70
2023-04-09T04:34:01.023Z,4.20
2023-04-09T04:36:29.200Z,4.50
2023-04-09T04:38:58.390Z,4.40
2023-04-09T04:41:28.304Z,4.40
2023-04-09T04:43:58.313Z,4.60
2023-04-09T04:46:26.861Z,4.70
2023-04-09T04:48:56.682Z,4.80
2023-04-09T04:51:27.681Z,4.70
2023-04-09T04:53:55.715Z,4.50
2023-04-09T04:56:30.235Z,4.70
2023-04-09T04:58:59.953Z,4.90
2023-04-09T05:01:30.564Z,4.50
2023-04-09T05:04:04.398Z,4.30
2023-04-09T05:06:35.747Z,4.10
2023-04-09T05:09:06.408Z,4.00
2023-04-09T05:11:37.524Z,3.90
2023-04-09T05:14:09.309Z,3.80
2023-04-09T05:16:38.095Z,3.80
2023-04-09T05:19:07.645Z,3.60
2023-04-09T05:21:40.755Z,4.00
2023-04-09T05:24:08.867Z,3.80
2023-04-09T05:26:37.108Z,4.00
2023-04-09T05:29:05.666Z,3.80
2023-04-09T05:31:34.951Z,3.90
2023-04-09T05:34:04.194Z,3.70
2023-04-09T05:36:33.335Z,3.80
2023-04-09T05:39:03.191Z,4.20
2023-04-09T05:41:37.769Z,4.30
2023-04-09T05:44:06.307Z,3.90
2023-04-09T05:46:36.852Z,4.00
2023-04-09T05:49:08.004Z,4.30
2023-04-09T05:51:40.830Z,4.00
2023-04-09T05:54:15.815Z,3.80
2023-04-09T05:56:46.774Z,3.70
2023-04-09T05:59:15.761Z,4.10
2023-04-09T06:01:48.588Z,4.30
2023-04-09T06:04:17.389Z,4.20
2023-04-09T06:06:46.098Z,4.10
2023-04-09T06:09:22.516Z,4.00
2023-04-09T06:12:04.986Z,4.30
2023-04-09T06:14:45.620Z,4.30
2023-04-09T06:17:14.335Z,4.40
2023-04-09T06:19:48.089Z,4.20
2023-04-09T06:22:19.365Z,4.00
2023-04-09T06:28:40.570Z,4.00
2023-04-09T06:31:11.170Z,4.10
2023-04-09T06:33:41.911Z,4.20
2023-04-09T06:36:10.671Z,4.30
2023-04-09T06:38:42.495Z,4.10
2023-04-09T06:41:13.158Z,4.20
2023-04-09T06:43:43.352Z,4.20
2023-04-09T06:46:20.399Z,4.30
2023-04-09T06:48:53.860Z,4.20
2023-04-09T06:51:23.831Z,4.20
2023-04-09T06:53:54.001Z,4.10
2023-04-09T06:56:26.853Z,4.10
2023-04-09T06:58:59.430Z,4.10
2023-04-09T07:01:29.971Z,4.20
2023-04-09T07:06:44.121Z,4.30
2023-04-09T07:09:20.171Z,4.30
2023-04-09T07:11:53.531Z,4.40
2023-04-09T07:14:44.440Z,4.50
2023-04-09T07:17:17.480Z,4.60
2023-04-09T07:19:47.498Z,4.70
2023-04-09T07:22:26.966Z,4.80
2023-04-09T07:24:59.318Z,4.90
2023-04-09T07:27:32.538Z,5.00
2023-04-09T07:30:06.407Z,5.10
2023-04-09T07:32:35.439Z,5.10
2023-04-09T07:35:13.537Z,5.20
2023-04-09T07:37:55.231Z,5.30
2023-04-09T07:40:34.150Z,5.40
2023-04-09T07:43:05.629Z,5.60
2023-04-09T07:45:42.046Z,5.70
2023-04-09T07:48:15.414Z,5.90
2023-04-09T07:50:47.050Z,6.00
2023-04-09T07:53:16.652Z,6.10
2023-04-09T07:55:47.302Z,6.30
2023-04-09T07:58:21.900Z,6.50
2023-04-09T08:01:08.221Z,6.60
2023-04-09T08:03:42.684Z,6.90
2023-04-09T08:06:12.046Z,7.10
2023-04-09T08:08:49.832Z,7.20
2023-04-09T08:11:25.399Z,7.60
2023-04-09T08:13:53.655Z,7.90
2023-04-09T08:16:24.771Z,8.00
2023-04-09T08:18:59.335Z,8.40
2023-04-09T08:21:30.221Z,8.50
2023-04-09T08:24:09.691Z,8.50
2023-04-09T08:57:41.344Z,10.60
2023-04-09T09:00:10.777Z,10.90
2023-04-09T09:02:41.517Z,11.20
2023-04-09T09:05:16.856Z,11.10
2023-04-09T09:07:54.788Z,11.20
2023-04-09T09:10:24.722Z,11.30
2023-04-09T09:12:57.429Z,11.30
2023-04-09T09:15:37.395Z,11.70
2023-04-09T09:18:05.732Z,12.10
2023-04-09T09:20:34.683Z,12.40
2023-04-09T09:23:03.683Z,12.30
2023-04-09T09:25:31.933Z,12.60
2023-04-09T09:28:09.857Z,12.90
2023-04-09T09:30:40.203Z,13.20
2023-04-09T09:33:09.975Z,13.40
2023-04-09T09:36:00.566Z,13.10
2023-04-09T09:38:29.089Z,12.70
2023-04-09T09:40:57.707Z,13.10
2023-04-09T09:43:27.687Z,13.30
2023-04-09T09:45:55.894Z,13.10
2023-04-09T09:48:25.753Z,13.30
2023-04-09T09:50:55.664Z,13.50
2023-04-09T09:53:24.391Z,13.80
2023-04-09T09:55:54.238Z,14.00
2023-04-09T09:58:28.523Z,14.00
2023-04-09T10:00:58.055Z,13.90
2023-04-09T10:03:28.561Z,14.00
2023-04-09T10:05:56.781Z,14.00
2023-04-09T10:08:25.551Z,14.00
2023-04-09T10:10:53.903Z,14.10
2023-04-09T10:13:29.856Z,14.20
2023-04-09T10:15:58.833Z,14.60
2023-04-09T10:18:27.613Z,14.70
2023-04-09T10:21:00.817Z,14.50
2023-04-09T10:23:34.358Z,14.40
2023-04-09T10:26:03.253Z,14.50
2023-04-09T10:28:33.633Z,14.60
2023-04-09T10:31:02.817Z,14.50
2023-04-09T10:33:31.104Z,14.40
2023-04-09T10:36:02.423Z,14.70
2023-04-09T10:38:38.803Z,14.60
2023-04-09T10:41:14.956Z,14.40
2023-04-09T10:43:49.188Z,14.50
2023-04-09T10:46:28.189Z,14.60
2023-04-09T10:49:13.807Z,15.00
2023-04-09T10:51:42.990Z,14.90
2023-04-09T10:54:52.990Z,15.20
2023-04-09T10:57:22.677Z,15.20
2023-04-09T10:59:53.793Z,14.90
2023-04-09T11:02:57.928Z,15.40
2023-04-09T11:05:33.966Z,16.50
2023-04-09T11:08:07.798Z,16.70
2023-04-09T11:10:36.781Z,16.70
2023-04-09T11:13:05.963Z,16.60
2023-04-09T11:15:36.934Z,15.90
2023-04-09T11:18:07.224Z,15.30
2023-04-09T11:20:35.939Z,15.50
2023-04-09T11:23:04.531Z,16.10
2023-04-09T11:25:34.237Z,16.50
2023-04-09T11:28:04.663Z,17.10
2023-04-09T11:30:34.779Z,17.40
2023-04-09T11:33:04.679Z,17.40
2023-04-09T11:35:36.591Z,17.10
2023-04-09T11:38:08.526Z,17.00
2023-04-09T11:40:38.179Z,16.60
2023-04-09T11:43:10.487Z,16.80
2023-04-09T11:45:39.329Z,17.10
2023-04-09T11:48:09.471Z,17.10
2023-04-09T11:50:38.759Z,17.20
2023-04-09T11:53:18.529Z,17.10
2023-04-09T11:55:49.347Z,16.80
2023-04-09T11:58:18.451Z,16.90
2023-04-09T12:00:47.165Z,16.90
2023-04-09T12:03:17.435Z,16.80
2023-04-09T12:05:50.879Z,16.40
2023-04-09T12:08:25.155Z,16.20
2023-04-09T12:10:54.318Z,16.20
2023-04-09T12:13:22.926Z,16.20
2023-04-09T12:15:51.721Z,16.30
2023-04-09T12:18:23.586Z,16.10
2023-04-09T12:20:52.213Z,16.20
2023-04-09T12:23:20.302Z,16.10
2023-04-09T12:25:48.739Z,16.00
2023-04-09T12:28:18.652Z,16.00
2023-04-09T12:30:49.163Z,16.10
2023-04-09T12:33:17.605Z,15.90
2023-04-09T12:35:47.852Z,15.80
2023-04-09T12:38:16.572Z,15.60
2023-04-09T12:40:45.057Z,15.80
2023-04-09T12:43:13.399Z,15.90
2023-04-09T12:45:41.735Z,16.00
2023-04-09T12:48:10.113Z,15.90
2023-04-09T12:50:38.734Z,16.00
2023-04-09T12:53:08.970Z,16.00
2023-04-09T12:55:37.120Z,16.00
2023-04-09T12:58:05.452Z,16.00
2023-04-09T13:00:33.682Z,16.00
2023-04-09T13:03:02.412Z,16.00
2023-04-09T13:05:32.589Z,15.80
2023-04-09T13:08:01.942Z,15.90
2023-04-09T13:10:32.433Z,16.10
2023-04-09T13:13:00.853Z,16.20
2023-04-09T13:15:29.292Z,16.30
2023-04-09T13:17:57.898Z,16.50
2023-04-09T13:20:26.243Z,16.60
2023-04-09T13:22:54.938Z,17.30
2023-04-09T13:25:23.752Z,17.50
2023-04-09T13:27:53.616Z,17.50
2023-04-09T13:30:23.508Z,17.50
2023-04-09T13:32:52.234Z,17.50
2023-04-09T13:35:20.705Z,17.70
2023-04-09T13:37:49.298Z,18.10
2023-04-09T13:40:17.817Z,18.20
2023-04-09T13:42:46.103Z,18.30
2023-04-09T13:45:16.755Z,18.60
2023-04-09T13:47:45.156Z,18.80
2023-04-09T13:50:13.995Z,19.10
2023-04-09T13:52:42.155Z,19.20
2023-04-09T13:55:11.747Z,19.10
2023-04-09T13:57:40.044Z,19.00
2023-04-09T14:00:09.831Z,18.60
2023-04-09T14:02:39.999Z,18.60
2023-04-09T14:05:09.046Z,18.50
2023-04-09T14:07:37.594Z,18.30
2023-04-09T14:10:07.141Z,18.70
2023-04-09T14:12:35.618Z,18.80
2023-04-09T14:15:05.083Z,18.90
2023-04-09T14:17:33.479Z,18.50
2023-04-09T14:20:04.249Z,18.50
2023-04-09T14:22:32.857Z,18.30
2023-04-09T14:25:01.371Z,18.10
2023-04-09T14:27:30.061Z,18.20
2023-04-09T14:29:58.396Z,18.00
2023-04-09T14:32:27.138Z,18.00
2023-04-09T14:34:55.333Z,17.80
2023-04-09T14:37:25.176Z,17.60
2023-04-09T14:39:53.505Z,17.60
2023-04-09T14:42:21.742Z,17.60
2023-04-09T14:44:50.953Z,17.50
2023-04-09T14:47:19.701Z,17.40
2023-04-09T14:49:48.495Z,17.30
2023-04-09T14:52:17.058Z,17.30
2023-04-09T14:54:46.909Z,17.30
2023-04-09T14:57:15.368Z,17.20
2023-04-09T14:59:44.037Z,17.20
2023-04-09T15:02:12.675Z,17.40
2023-04-09T15:04:41.441Z,17.70
2023-04-09T15:07:09.783Z,17.70
2023-04-09T15:09:38.092Z,17.80
2023-04-09T15:12:09.658Z,17.90
2023-04-09T15:14:37.760Z,17.40
2023-04-09T15:17:05.992Z,17.30
2023-04-09T15:19:35.245Z,17.40
2023-04-09T15:22:03.744Z,17.30
2023-04-09T15:24:32.236Z,17.50
2023-04-09T15:27:01.356Z,17.50
2023-04-09T15:29:31.399Z,17.40
2023-04-09T15:31:59.851Z,17.30
2023-04-09T15:34:28.826Z,17.50
2023-04-09T15:36:57.148Z,17.60
2023-04-09T15:39:28.357Z,17.60
2023-04-09T15:41:57.702Z,17.60
2023-04-09T15:44:26.036Z,18.00
2023-04-09T15:46:56.052Z,17.80
2023-04-09T15:49:24.875Z,17.80
2023-04-09T15:51:53.309Z,17.60
2023-04-09T15:54:22.010Z,17.50
2023-04-09T15:56:52.187Z,17.40
2023-04-09T15:59:20.696Z,17.50
2023-04-09T16:01:49.211Z,17.70
2023-04-09T16:04:19.566Z,17.90
2023-04-09T16:06:48.361Z,17.30
2023-04-09T16:09:16.761Z,17.60
2023-04-09T16:11:45.259Z,17.70
2023-04-09T16:14:13.880Z,17.60
2023-04-09T16:16:47.401Z,17.40
2023-04-09T16:19:15.928Z,17.00
2023-04-09T16:21:45.887Z,17.00
2023-04-09T16:24:14.599Z,16.90
2023-04-09T16:26:44.707Z,16.70
2023-04-09T16:29:13.572Z,16.70
2023-04-09T16:31:43.203Z,16.70
2023-04-09T16:34:11.413Z,16.60
2023-04-09T16:36:41.546Z,16.60
2023-04-09T16:39:11.456Z,16.60
2023-04-09T16:41:40.063Z,16.30
2023-04-09T16:44:08.262Z,16.10
2023-04-09T16:46:36.495Z,16.20
2023-04-09T16:49:04.950Z,16.30
2023-04-09T16:51:33.361Z,16.20
2023-04-09T16:54:01.880Z,16.10
2023-04-09T16:56:31.757Z,16.20
2023-04-09T16:59:00.220Z,16.10
2023-04-09T17:01:30.134Z,15.80
2023-04-09T17:04:00.176Z,15.80
2023-04-09T17:06:28.879Z,15.80
2023-04-09T17:08:57.434Z,15.70
2023-04-09T17:11:26.166Z,15.70
2023-04-09T17:13:56.814Z,15.80
2023-04-09T17:16:25.747Z,15.70
2023-04-09T17:18:54.598Z,15.60
2023-04-09T17:21:23.177Z,15.60
2023-04-09T17:23:51.262Z,15.60
2023-04-09T17:26:21.485Z,15.50
2023-04-09T17:28:49.924Z,15.30
2023-04-09T17:31:24.347Z,15.30
2023-04-09T17:33:55.589Z,15.30
2023-04-09T17:36:24.049Z,15.00
2023-04-09T17:38:54.065Z,14.90
2023-04-09T17:41:22.818Z,14.90
2023-04-09T17:43:51.158Z,14.70
2023-04-09T17:46:22.171Z,14.60
2023-04-09T17:48:50.833Z,14.60
2023-04-09T17:51:20.896Z,14.50
2023-04-09T17:53:49.668Z,14.50
2023-04-09T17:56:19.076Z,14.50
2023-04-09T17:58:47.905Z,14.40
2023-04-09T18:01:17.009Z,14.30
2023-04-09T18:03:47.141Z,14.20
2023-04-09T18:06:17.664Z,14.10
2023-04-09T18:08:45.739Z,14.00
2023-04-09T18:11:15.635Z,13.90
2023-04-09T18:13:44.373Z,13.80
2023-04-09T18:16:13.182Z,13.80
2023-04-09T18:18:43.259Z,13.70
2023-04-09T18:21:16.314Z,13.70
2023-04-09T18:23:44.677Z,13.60
2023-04-09T18:26:12.940Z,13.50
2023-04-09T18:28:41.973Z,13.50
2023-04-09T18:31:14.421Z,13.40
2023-04-09T18:33:44.095Z,13.30
2023-04-09T18:36:14.203Z,13.20
2023-04-09T18:38:42.501Z,13.20
2023-04-09T18:41:11.389Z,13.10
2023-04-09T18:43:39.928Z,13.10
2023-04-09T18:46:08.450Z,13.00
2023-04-09T18:48:36.990Z,12.90
2023-04-09T18:51:06.802Z,12.80
2023-04-09T18:53:36.477Z,12.60
2023-04-09T18:56:05.311Z,12.40
2023-04-09T18:58:34.643Z,12.30
2023-04-09T19:01:10.106Z,12.30
2023-04-09T19:03:39.693Z,12.20
2023-04-09T19:06:14.842Z,12.20
2023-04-09T19:08:44.358Z,12.10
2023-04-09T19:11:13.955Z,12.10
2023-04-09T19:13:42.061Z,12.00
2023-04-09T19:16:11.652Z,12.10
2023-04-09T19:18:40.229Z,12.00
2023-04-09T19:21:09.233Z,11.70
2023-04-09T19:23:37.752Z,11.40
2023-04-09T19:26:07.388Z,11.20
2023-04-09T19:28:36.115Z,11.00
2023-04-09T19:31:07.151Z,10.90
2023-04-09T19:33:36.514Z,10.80
2023-04-09T19:36:06.593Z,10.40
2023-04-09T19:38:36.758Z,10.30
2023-04-09T19:41:07.259Z,10.60
2023-04-09T19:43:37.468Z,10.70
2023-04-09T19:46:09.142Z,10.60
2023-04-09T19:48:38.413Z,10.70
2023-04-09T19:51:07.268Z,10.70
2023-04-09T19:53:36.520Z,10.50
2023-04-09T19:56:07.033Z,10.20
2023-04-09T19:58:36.025Z,9.90
2023-04-09T20:01:04.511Z,9.60
2023-04-09T20:03:33.668Z,9.60
2023-04-09T20:06:02.289Z,9.60
2023-04-09T20:08:30.722Z,9.50
2023-04-09T20:11:00.018Z,9.30
2023-04-09T20:13:29.548Z,9.20
2023-04-09T20:15:58.566Z,9.40
2023-04-09T20:18:26.825Z,9.70
2023-04-09T20:20:55.289Z,9.70
2023-04-09T20:23:25.782Z,9.50
2023-04-09T20:25:55.376Z,9.10
2023-04-09T20:28:23.922Z,9.10
2023-04-09T20:30:53.801Z,8.80
2023-04-09T20:33:22.601Z,8.50
2023-04-09T20:35:52.367Z,8.60
2023-04-09T20:38:22.593Z,8.90
2023-04-09T20:40:52.739Z,9.20
2023-04-09T20:43:21.632Z,9.60
2023-04-09T20:45:51.599Z,9.60
2023-04-09T20:48:21.609Z,9.50
2023-04-09T20:50:50.716Z,8.90
2023-04-09T20:53:19.259Z,8.50
2023-04-09T20:55:47.846Z,8.30
2023-04-09T20:58:16.279Z,8.30
2023-04-09T21:00:44.767Z,8.10
2023-04-09T21:03:13.351Z,8.40
2023-04-09T21:05:43.453Z,8.50
2023-04-09T21:08:15.504Z,8.30
2023-04-09T21:10:51.432Z,8.40
2023-04-09T21:13:19.927Z,8.30
2023-04-09T21:15:48.413Z,8.20
2023-04-09T21:18:17.216Z,8.20
2023-04-09T21:20:47.589Z,8.40
2023-04-09T21:23:16.011Z,8.30
2023-04-09T21:25:44.496Z,8.00
2023-04-09T21:28:14.789Z,7.70
2023-04-09T21:30:43.303Z,7.60
2023-04-09T21:33:11.693Z,7.80
2023-04-09T21:35:40.172Z,7.60
2023-04-09T21:38:09.782Z,7.50
2023-04-09T21:40:38.537Z,7.30
2023-04-09T21:43:06.738Z,7.30
2023-04-09T21:45:35.099Z,7.00
2023-04-09T21:48:04.285Z,6.90
2023-04-09T21:50:40.293Z,6.90
2023-04-09T21:53:09.738Z,6.70
2023-04-09T21:55:38.935Z,6.70
2023-04-09T21:58:08.215Z,6.70
2023-04-09T22:00:36.483Z,6.60
2023-04-09T22:03:04.972Z,6.50
2023-04-09T22:05:34.850Z,6.50
2023-04-09T22:08:03.006Z,6.40
2023-04-09T22:10:32.579Z,6.40
2023-04-09T22:13:01.253Z,6.40
2023-04-09T22:15:29.308Z,6.40
2023-04-09T22:17:57.783Z,6.50
2023-04-09T22:20:31.859Z,6.50
2023-04-09T22:22:59.975Z,6.50
2023-04-09T22:25:34.686Z,6.40
2023-04-09T22:28:05.797Z,6.50
2023-04-09T22:30:33.843Z,6.40
2023-04-09T22:33:02.386Z,6.30
2023-04-09T22:35:30.667Z,6.30
2023-04-09T22:37:59.433Z,6.20
2023-04-09T22:40:27.511Z,6.20
2023-04-09T22:42:55.629Z,6.10
2023-04-09T22:45:27.765Z,6.10
2023-04-09T22:47:55.972Z,6.00
2023-04-09T22:50:24.306Z,6.00
2023-04-09T22:52:54.527Z,5.80
2023-04-09T22:55:23.445Z,5.80
2023-04-09T22:57:51.524Z,5.70
2023-04-09T23:00:19.721Z,5.60
2023-04-09T23:02:50.980Z,5.80
2023-04-09T23:05:19.339Z,6.00
2023-04-09T23:07:48.325Z,6.10
2023-04-09T23:10:17.570Z,6.30
2023-04-09T23:12:45.736Z,6.30
2023-04-09T23:15:13.837Z,6.30
2023-04-09T23:17:42.677Z,6.10
2023-04-09T23:20:14.910Z,6.00
2023-04-09T23:22:43.152Z,5.80
2023-04-09T23:25:11.456Z,5.70
2023-04-09T23:27:39.506Z,5.70
2023-04-09T23:30:08.860Z,5.70
2023-04-09T23:32:37.060Z,5.70
2023-04-09T23:35:05.679Z,5.60
2023-04-09T23:37:35.136Z,5.50
2023-04-09T23:40:03.774Z,5.60
2023-04-09T23:42:33.978Z,5.50
2023-04-09T23:45:04.061Z,5.30
2023-04-09T23:47:33.804Z,5.40
2023-04-09T23:50:04.723Z,5.40
2023-04-09T23:52:35.102Z,5.50
2023-04-09T23:55:03.210Z,5.30
2023-04-09T23:57:31.466Z,5.30
2023-04-09T23:59:59.597Z,5.30
